Time;durP1;ratioP1;P1;durP2;ratioP2;P2;SDS_P1;SDS_P2;PMS_P1;PMS_P2;Temp;Humidity;BMP_temperature;BMP_pressure;BME280_temperature;BME280_humidity;BME280_pressure;Samples;Min_cycle;Max_cycle;Signal;HPM_P1;HPM_P2
2022/12/09 00:08:56;;;;;;;;;;;-0.60;99.90;;;;;;6401043;22;19914;-92
2022/12/09 00:11:22;;;;;;;;;;;-0.60;99.90;;;;;;6375563;22;19920;-93
2022/12/09 00:13:48;;;;;;;;;;;-0.70;99.90;;;;;;6375426;22;19992;-92
2022/12/09 00:16:14;;;;;;;;;;;-0.70;99.90;;;;;;6375882;22;20318;-92
2022/12/09 00:18:40;;;;;;;;;;;-0.60;99.90;;;;;;6375370;22;19910;-91
2022/12/09 01:13:33;;;;;;;;;;;-0.60;99.90;;;;;;6406027;22;19992;-85
2022/12/09 01:15:59;;;;;;;;;;;-0.60;99.90;;;;;;6376995;22;19914;-93
2022/12/09 01:18:24;;;;;;;;;;;-0.60;99.90;;;;;;6376539;22;19958;-89
2022/12/09 01:20:57;;;;;;;;;;;-0.60;99.90;;;;;;6377145;22;19913;-94
2022/12/09 01:23:23;;;;;;;;;;;-0.60;99.90;;;;;;6403063;22;19914;-90
2022/12/09 01:31:07;;;;;;;;;;;-0.50;99.90;;;;;;6341010;22;19915;-92
2022/12/09 01:33:33;;;;;;;;;;;-0.60;99.90;;;;;;6287859;22;19968;-92
2022/12/09 01:35:58;;;;;;;;;;;-0.60;99.90;;;;;;6288223;22;19914;-91
2022/12/09 01:38:24;;;;;;;;;;;-0.50;99.90;;;;;;6288320;22;19996;-92
2022/12/09 02:01:16;;;;;;;;;;;-0.60;99.90;;;;;;6350837;22;20244;-91
2022/12/09 02:03:41;;;;;;;;;;;-0.60;99.90;;;;;;6318080;22;19914;-85
2022/12/09 02:06:07;;;;;;;;;;;-0.50;99.90;;;;;;6317987;22;19967;-87
2022/12/09 02:08:33;;;;;;;;;;;-0.50;99.90;;;;;;6318088;22;20361;-87
2022/12/09 02:11:17;;;;;;;;;;;-0.50;99.90;;;;;;6344047;22;20228;-90
2022/12/09 02:13:50;;;;;;;;;;;-0.60;99.90;;;;;;6317760;22;20250;-88
2022/12/09 02:16:40;;;;;;;;;;;-0.60;99.90;;;;;;6344092;22;19921;-85
2022/12/09 02:22:31;;;;;;;;;;;-0.50;99.90;;;;;;6371835;22;19948;-85
2022/12/09 02:25:02;;;;;;;;;;;-0.50;99.90;;;;;;6317262;22;19921;-86
2022/12/09 02:27:39;;;;;;;;;;;-0.50;99.90;;;;;;6343937;22;19914;-86
2022/12/09 03:02:01;;;;;;;;;;;-0.40;99.90;;;;;;6383509;22;19929;-86
2022/12/09 03:04:27;;;;;;;;;;;-0.40;99.90;;;;;;6402052;22;19920;-85
2022/12/09 03:06:54;;;;;;;;;;;-0.40;99.90;;;;;;6375989;22;19914;-95
2022/12/09 03:09:23;;;;;;;;;;;-0.50;99.90;;;;;;6375913;22;19914;-94
2022/12/09 03:11:50;;;;;;;;;;;-0.40;99.90;;;;;;6375762;22;20291;-90
2022/12/09 03:14:22;;;;;;;;;;;-0.40;99.90;;;;;;6375771;22;19914;-91
2022/12/09 03:17:13;;;;;;;;;;;-0.40;99.90;;;;;;6376387;22;19956;-91
2022/12/09 03:19:47;;;;;;;;;;;-0.40;99.90;;;;;;6401633;22;19921;-85
2022/12/09 03:22:15;;;;;;;;;;;-0.40;99.90;;;;;;6375067;22;20388;-88
2022/12/09 03:24:44;;;;;;;;;;;-0.40;99.90;;;;;;6375050;22;19921;-88
2022/12/09 03:27:41;;;;;;;;;;;-0.40;99.90;;;;;;6401942;22;19914;-86
2022/12/09 04:14:28;;;;;;;;;;;-0.70;99.90;;;;;;6401239;22;19914;-91
2022/12/09 04:16:57;;;;;;;;;;;-0.70;99.90;;;;;;6374539;22;19914;-95
2022/12/09 04:19:22;;;;;;;;;;;-0.70;99.90;;;;;;6374623;22;19920;-94
2022/12/09 04:21:48;;;;;;;;;;;-0.70;99.90;;;;;;6401049;22;19914;-94
2022/12/09 04:24:17;;;;;;;;;;;-0.70;99.90;;;;;;6374683;22;19949;-90
2022/12/09 04:26:43;;;;;;;;;;;-0.70;99.90;;;;;;6375099;22;19978;-92
2022/12/09 04:39:49;;;;;;;;;;;-0.60;99.90;;;;;;6370925;22;19942;-92
2022/12/09 05:34:25;;;;;;;;;;;-0.90;99.90;;;;;;6376205;22;19993;-91
2022/12/09 05:36:51;;;;;;;;;;;-0.90;99.90;;;;;;6376475;22;20251;-88
2022/12/09 05:39:17;;;;;;;;;;;-0.80;99.90;;;;;;6376488;22;20288;-89
2022/12/09 05:41:45;;;;;;;;;;;-0.90;99.90;;;;;;6376466;22;19914;-83
2022/12/09 05:44:11;;;;;;;;;;;-0.90;99.90;;;;;;6402657;22;19910;-83
2022/12/09 07:02:17;;;;;;;;;;;-0.90;99.90;;;;;;6410905;22;19913;-89
2022/12/09 07:04:52;;;;;;;;;;;-0.90;99.90;;;;;;6377147;22;20382;-88
2022/12/09 07:20:16;;;;;;;;;;;-1.10;99.90;;;;;;6352203;22;19915;-90
2022/12/09 07:25:18;;;;;;;;;;;-1.20;99.90;;;;;;6378293;22;19925;-89
2022/12/09 07:30:19;;;;;;;;;;;-1.20;99.90;;;;;;6399659;22;19962;-90
2022/12/09 07:32:46;;;;;;;;;;;-1.20;99.90;;;;;;6387167;22;19914;-88
2022/12/09 07:35:12;;;;;;;;;;;-1.20;99.90;;;;;;6374727;22;20315;-87
2022/12/09 07:37:38;;;;;;;;;;;-1.30;99.90;;;;;;6403194;22;19913;-89
2022/12/09 07:40:04;;;;;;;;;;;-1.30;99.90;;;;;;6375745;22;19917;-88
2022/12/09 07:42:30;;;;;;;;;;;-1.30;99.90;;;;;;6348511;22;19914;-87
2022/12/09 07:44:56;;;;;;;;;;;-1.20;99.90;;;;;;6347978;22;20322;-88
2022/12/09 07:47:25;;;;;;;;;;;-1.30;99.90;;;;;;6375046;22;19925;-88
2022/12/09 07:49:51;;;;;;;;;;;-1.20;99.90;;;;;;6375801;22;19914;-88
2022/12/09 07:52:16;;;;;;;;;;;-1.30;99.90;;;;;;6402800;22;19914;-88
2022/12/09 07:54:42;;;;;;;;;;;-1.30;99.90;;;;;;6378924;22;20066;-88
2022/12/09 07:57:07;;;;;;;;;;;-1.30;99.90;;;;;;6380378;22;20291;-87
2022/12/09 07:59:33;;;;;;;;;;;-1.20;99.90;;;;;;6381108;22;19917;-87
2022/12/09 08:04:34;;;;;;;;;;;-1.20;99.90;;;;;;6344092;22;19941;-88
2022/12/09 08:07:00;;;;;;;;;;;-1.20;99.90;;;;;;6291180;22;19989;-87
2022/12/09 08:09:25;;;;;;;;;;;-1.20;99.90;;;;;;6289571;22;19989;-86
2022/12/09 08:15:04;;;;;;;;;;;-1.20;99.90;;;;;;6317574;22;20413;-88
2022/12/09 08:17:32;;;;;;;;;;;-1.20;99.90;;;;;;6342759;22;19915;-87
2022/12/09 08:19:58;;;;;;;;;;;-1.20;99.90;;;;;;6312971;22;19922;-87
2022/12/09 08:22:26;;;;;;;;;;;-1.30;99.90;;;;;;6312807;22;19922;-86
2022/12/09 08:24:55;;;;;;;;;;;-1.20;99.90;;;;;;6312218;22;19914;-87
2022/12/09 08:33:49;;;;;;;;;;;-1.10;99.90;;;;;;6312588;22;19997;-88
2022/12/09 08:36:28;;;;;;;;;;;-1.00;99.90;;;;;;6312440;22;19921;-86
2022/12/09 08:38:54;;;;;;;;;;;-0.90;99.90;;;;;;6286849;22;20335;-87
2022/12/09 08:41:47;;;;;;;;;;;-0.80;99.90;;;;;;6340532;22;19941;-88
2022/12/09 08:44:14;;;;;;;;;;;-0.80;99.90;;;;;;6287090;22;19918;-88
2022/12/09 08:46:41;;;;;;;;;;;-0.70;99.90;;;;;;6312335;22;19964;-90
2022/12/09 08:49:16;;;;;;;;;;;-0.50;99.90;;;;;;6288442;22;19946;-94
2022/12/09 08:51:46;;;;;;;;;;;-0.50;99.90;;;;;;6287448;22;19953;-89
2022/12/09 08:54:11;;;;;;;;;;;-0.40;99.90;;;;;;6313574;22;20000;-87
2022/12/09 08:57:05;;;;;;;;;;;-0.30;99.90;;;;;;6289001;22;19914;-88
2022/12/09 08:59:31;;;;;;;;;;;-0.30;99.90;;;;;;6313192;22;19925;-88
2022/12/09 09:01:56;;;;;;;;;;;-0.20;99.90;;;;;;6287266;22;19985;-87
2022/12/09 09:04:22;;;;;;;;;;;-0.10;99.90;;;;;;6312418;22;19919;-88
2022/12/09 09:06:49;;;;;;;;;;;0.00;99.90;;;;;;6261392;22;20008;-95
2022/12/09 09:09:15;;;;;;;;;;;0.00;99.90;;;;;;6312766;22;19914;-88
2022/12/09 09:11:41;;;;;;;;;;;0.00;99.90;;;;;;6286673;22;19914;-87
2022/12/09 09:14:08;;;;;;;;;;;0.10;99.90;;;;;;6312412;22;19923;-88
2022/12/09 09:16:34;;;;;;;;;;;0.20;99.90;;;;;;6312147;22;20392;-88
2022/12/09 09:24:10;;;;;;;;;;;0.50;99.90;;;;;;6339318;22;19984;-88
2022/12/09 09:31:57;;;;;;;;;;;0.60;99.90;;;;;;6316238;22;1173151;-88
2022/12/09 09:37:04;;;;;;;;;;;0.70;99.90;;;;;;6341765;22;19914;-87
2022/12/09 09:42:05;;;;;;;;;;;0.80;99.90;;;;;;6403437;22;19921;-88
2022/12/09 09:44:40;;;;;;;;;;;0.80;99.90;;;;;;6401982;22;19920;-88
2022/12/09 09:47:16;;;;;;;;;;;0.90;99.90;;;;;;6403750;22;19921;-88
2022/12/09 09:50:02;;;;;;;;;;;0.90;99.90;;;;;;6406115;22;19914;-88
2022/12/09 09:52:28;;;;;;;;;;;0.90;99.90;;;;;;6375763;22;19965;-88
2022/12/09 09:57:51;;;;;;;;;;;0.90;99.90;;;;;;6344061;22;19915;-88
2022/12/09 10:00:27;;;;;;;;;;;1.00;99.90;;;;;;6290058;22;19999;-87
2022/12/09 10:03:00;;;;;;;;;;;0.90;99.90;;;;;;6291276;22;19921;-87
2022/12/09 10:05:31;;;;;;;;;;;0.90;99.90;;;;;;6287345;22;19915;-87
2022/12/09 10:08:17;;;;;;;;;;;0.90;99.90;;;;;;6314044;22;20321;-87
2022/12/09 10:10:48;;;;;;;;;;;0.90;99.90;;;;;;6272131;22;19914;-88
2022/12/09 10:15:49;;;;;;;;;;;1.00;99.90;;;;;;6342306;22;19916;-87
2022/12/09 10:18:21;;;;;;;;;;;1.00;99.90;;;;;;6287432;22;20262;-88
2022/12/09 10:20:51;;;;;;;;;;;1.10;99.90;;;;;;6292842;22;19918;-88
2022/12/09 10:26:00;;;;;;;;;;;1.10;99.90;;;;;;6375626;22;19939;-88
2022/12/09 10:28:29;;;;;;;;;;;1.10;99.90;;;;;;6338688;22;19924;-88
2022/12/09 10:30:55;;;;;;;;;;;1.10;99.90;;;;;;6338851;22;19925;-86
2022/12/09 10:33:28;;;;;;;;;;;1.10;99.90;;;;;;6334082;22;19914;-88
2022/12/09 10:35:54;;;;;;;;;;;1.10;99.90;;;;;;6346928;22;20339;-87
2022/12/09 10:38:21;;;;;;;;;;;1.10;99.90;;;;;;6346899;22;19924;-87
2022/12/09 10:40:48;;;;;;;;;;;1.10;99.90;;;;;;6346066;22;20327;-87
2022/12/09 10:43:40;;;;;;;;;;;1.10;99.90;;;;;;6318713;22;19957;-86
2022/12/09 10:46:06;;;;;;;;;;;1.10;99.90;;;;;;6345514;22;19914;-87
2022/12/09 10:48:36;;;;;;;;;;;1.10;99.90;;;;;;6347294;22;19918;-87
2022/12/09 10:51:22;;;;;;;;;;;1.10;99.90;;;;;;6345253;22;19961;-87
2022/12/09 10:53:53;;;;;;;;;;;1.10;99.90;;;;;;6344453;22;19996;-86
2022/12/09 10:59:06;;;;;;;;;;;1.10;99.90;;;;;;6374630;22;19914;-86
2022/12/09 11:04:13;;;;;;;;;;;1.10;99.90;;;;;;6340544;22;19915;-87
2022/12/09 11:06:40;;;;;;;;;;;1.00;99.90;;;;;;6313455;22;19915;-89
2022/12/09 11:09:17;;;;;;;;;;;1.00;99.90;;;;;;6286409;22;20220;-87
2022/12/09 11:11:44;;;;;;;;;;;0.90;99.90;;;;;;6312551;22;19914;-87
2022/12/09 11:14:23;;;;;;;;;;;0.90;99.90;;;;;;6311399;22;19914;-86
2022/12/09 11:16:51;;;;;;;;;;;0.90;99.90;;;;;;6312075;22;20342;-87
2022/12/09 11:19:17;;;;;;;;;;;0.80;99.90;;;;;;6323166;22;19966;-87
2022/12/09 11:21:43;;;;;;;;;;;0.90;99.90;;;;;;6342045;22;20352;-86
2022/12/09 11:24:21;;;;;;;;;;;0.90;99.90;;;;;;6314988;22;19999;-88
2022/12/09 11:26:47;;;;;;;;;;;0.90;99.90;;;;;;6316328;22;19915;-85
2022/12/09 11:31:44;;;;;;;;;;;0.90;99.90;;;;;;6385940;22;19914;-86
2022/12/09 11:34:14;;;;;;;;;;;0.90;99.90;;;;;;6401415;22;19917;-86
2022/12/09 11:36:54;;;;;;;;;;;0.90;99.90;;;;;;6374364;22;19918;-86
2022/12/09 11:39:25;;;;;;;;;;;0.90;99.90;;;;;;6374903;22;19978;-87
2022/12/09 11:44:30;;;;;;;;;;;0.90;99.90;;;;;;6367332;22;20311;-87
2022/12/09 11:46:59;;;;;;;;;;;0.90;99.90;;;;;;6291541;22;19915;-87
2022/12/09 11:49:25;;;;;;;;;;;1.00;99.90;;;;;;6316968;22;19989;-87
2022/12/09 11:52:02;;;;;;;;;;;0.90;99.90;;;;;;6317006;22;19914;-87
2022/12/09 11:54:31;;;;;;;;;;;1.00;99.90;;;;;;6342854;22;19922;-87
2022/12/09 11:56:57;;;;;;;;;;;1.00;99.90;;;;;;6316982;22;19922;-86
2022/12/09 11:59:27;;;;;;;;;;;1.00;99.90;;;;;;6317354;22;20323;-87
2022/12/09 12:01:52;;;;;;;;;;;1.00;99.90;;;;;;6317079;22;19922;-88
2022/12/09 12:04:41;;;;;;;;;;;1.00;99.90;;;;;;6317101;22;20315;-86
2022/12/09 12:07:33;;;;;;;;;;;1.00;99.90;;;;;;6271589;22;19921;-87
2022/12/09 12:10:00;;;;;;;;;;;1.00;99.90;;;;;;6310247;22;19921;-87
2022/12/09 12:12:28;;;;;;;;;;;0.90;99.90;;;;;;6344852;22;20319;-87
2022/12/09 12:14:55;;;;;;;;;;;0.90;99.90;;;;;;6318358;22;20251;-87
2022/12/09 12:17:35;;;;;;;;;;;0.90;99.90;;;;;;6317078;22;19963;-86
2022/12/09 12:20:01;;;;;;;;;;;1.00;99.90;;;;;;6342722;22;19914;-86
2022/12/09 12:22:54;;;;;;;;;;;1.00;99.90;;;;;;6343231;22;19981;-88
2022/12/09 12:25:43;;;;;;;;;;;1.00;99.90;;;;;;6344852;22;19925;-87
2022/12/09 12:30:44;;;;;;;;;;;0.90;99.90;;;;;;6374309;22;19914;-86
2022/12/09 12:33:14;;;;;;;;;;;1.00;99.90;;;;;;6373328;22;19914;-86
2022/12/09 12:41:15;;;;;;;;;;;0.90;99.90;;;;;;6337034;22;19921;-86
2022/12/09 12:46:43;;;;;;;;;;;0.90;99.90;;;;;;6309694;22;19914;-87
2022/12/09 12:49:27;;;;;;;;;;;0.90;99.90;;;;;;6310561;22;19922;-86
2022/12/09 12:52:08;;;;;;;;;;;0.90;99.90;;;;;;6283839;22;19922;-86
2022/12/09 12:54:56;;;;;;;;;;;0.90;99.90;;;;;;6337806;22;20236;-86
2022/12/09 12:57:31;;;;;;;;;;;0.90;99.90;;;;;;6310313;22;19922;-87
2022/12/09 12:59:57;;;;;;;;;;;0.80;99.90;;;;;;6312070;22;19914;-85
2022/12/09 13:02:26;;;;;;;;;;;0.90;99.90;;;;;;6286026;22;19920;-87
2022/12/09 13:07:28;;;;;;;;;;;0.80;99.90;;;;;;6340371;22;19915;-86
2022/12/09 13:10:00;;;;;;;;;;;0.80;99.90;;;;;;6284800;22;19941;-86
2022/12/09 13:15:21;;;;;;;;;;;0.80;99.90;;;;;;6311816;22;19922;-87
2022/12/09 13:17:48;;;;;;;;;;;0.80;99.90;;;;;;6262329;22;19967;-86
2022/12/09 13:20:15;;;;;;;;;;;0.80;99.90;;;;;;6312716;22;19983;-86
2022/12/09 13:22:43;;;;;;;;;;;0.90;99.90;;;;;;6312530;22;20009;-87
2022/12/09 13:25:11;;;;;;;;;;;0.90;99.90;;;;;;6285180;22;19922;-86
2022/12/09 13:27:43;;;;;;;;;;;0.90;99.90;;;;;;6342396;22;19967;-87
2022/12/09 13:45:41;;;;;;;;;;;0.80;99.90;;;;;;6374343;22;19914;-87
2022/12/09 13:48:11;;;;;;;;;;;0.80;99.90;;;;;;6324922;22;19965;-86
2022/12/09 13:50:50;;;;;;;;;;;0.70;99.90;;;;;;6351084;22;19920;-87
2022/12/09 13:53:19;;;;;;;;;;;0.80;99.90;;;;;;6374017;22;19914;-87
2022/12/09 13:55:44;;;;;;;;;;;0.80;99.90;;;;;;6319575;22;19914;-87
2022/12/09 13:58:28;;;;;;;;;;;0.80;99.90;;;;;;6320850;22;20221;-87
2022/12/09 14:01:05;;;;;;;;;;;0.80;99.90;;;;;;6344791;22;19914;-86
2022/12/09 14:03:51;;;;;;;;;;;0.80;99.90;;;;;;6344912;22;20424;-88
2022/12/09 14:06:20;;;;;;;;;;;0.80;99.90;;;;;;6317021;22;19920;-87
2022/12/09 14:08:51;;;;;;;;;;;0.70;99.90;;;;;;6344343;22;19910;-87
2022/12/09 14:11:35;;;;;;;;;;;0.70;99.90;;;;;;6319976;22;19914;-88
2022/12/09 14:14:30;;;;;;;;;;;0.80;99.90;;;;;;6321413;22;19914;-88
2022/12/09 14:16:57;;;;;;;;;;;0.80;99.90;;;;;;6347672;22;19922;-87
2022/12/09 14:19:22;;;;;;;;;;;0.80;99.90;;;;;;6346058;22;20326;-87
2022/12/09 14:22:08;;;;;;;;;;;0.80;99.90;;;;;;6343978;22;19914;-86
2022/12/09 14:24:37;;;;;;;;;;;0.70;99.90;;;;;;6344853;22;19914;-87
2022/12/09 14:27:12;;;;;;;;;;;0.70;99.90;;;;;;6318944;22;19921;-88
2022/12/09 14:40:37;;;;;;;;;;;0.70;99.90;;;;;;6408683;22;19914;-87
2022/12/09 14:43:18;;;;;;;;;;;0.70;99.90;;;;;;6386644;22;19974;-88
2022/12/09 14:45:55;;;;;;;;;;;0.60;99.90;;;;;;6410646;22;19957;-87
2022/12/09 14:48:22;;;;;;;;;;;0.60;99.90;;;;;;6379169;22;19914;-87
2022/12/09 14:51:04;;;;;;;;;;;0.60;99.90;;;;;;6408045;22;19918;-87
2022/12/09 14:53:31;;;;;;;;;;;0.70;99.90;;;;;;6404963;22;19998;-87
2022/12/09 14:55:58;;;;;;;;;;;0.60;99.90;;;;;;6405775;22;19959;-87
2022/12/09 14:58:25;;;;;;;;;;;0.60;99.90;;;;;;6403820;22;19996;-88
2022/12/09 15:01:01;;;;;;;;;;;0.60;99.90;;;;;;6374996;22;19920;-87
2022/12/09 15:03:26;;;;;;;;;;;0.60;99.90;;;;;;6401853;22;20280;-90
2022/12/09 15:06:00;;;;;;;;;;;0.60;99.90;;;;;;6401045;22;19961;-88
2022/12/09 15:08:26;;;;;;;;;;;0.60;99.90;;;;;;6374861;22;19917;-88
2022/12/09 15:10:52;;;;;;;;;;;0.60;99.90;;;;;;6401845;22;20035;-88
2022/12/09 15:13:18;;;;;;;;;;;0.60;99.90;;;;;;6401737;22;19949;-87
2022/12/09 15:15:44;;;;;;;;;;;0.60;99.90;;;;;;6403585;22;19921;-87
2022/12/09 15:18:16;;;;;;;;;;;0.60;99.90;;;;;;6375507;22;20284;-88
2022/12/09 15:20:46;;;;;;;;;;;0.60;99.90;;;;;;6375701;22;19989;-88
2022/12/09 15:23:40;;;;;;;;;;;0.60;99.90;;;;;;6405193;22;19914;-86
2022/12/09 15:26:35;;;;;;;;;;;0.60;99.90;;;;;;6401622;22;19966;-87
2022/12/09 15:29:05;;;;;;;;;;;0.70;99.90;;;;;;6347555;22;19949;-87
2022/12/09 15:31:31;;;;;;;;;;;0.70;99.90;;;;;;6401303;22;19913;-87
2022/12/09 15:33:58;;;;;;;;;;;0.70;99.90;;;;;;6375115;22;19914;-96
2022/12/09 15:36:36;;;;;;;;;;;0.70;99.90;;;;;;6405509;22;19914;-86
2022/12/09 15:46:05;;;;;;;;;;;0.70;99.90;;;;;;6404936;22;19909;-94
2022/12/09 15:48:38;;;;;;;;;;;0.70;99.90;;;;;;6378247;22;19949;-95
2022/12/09 16:48:01;;;;;;;;;;;0.50;99.90;;;;;;6403647;22;19940;-90
2022/12/09 16:50:50;;;;;;;;;;;0.40;99.90;;;;;;6377420;22;19921;-90
2022/12/09 16:53:21;;;;;;;;;;;0.40;99.90;;;;;;6403293;22;19961;-90
2022/12/09 16:55:54;;;;;;;;;;;0.40;99.90;;;;;;6375072;22;19914;-90
2022/12/09 17:03:34;;;;;;;;;;;0.30;99.90;;;;;;6354499;22;19921;-90
2022/12/09 17:05:59;;;;;;;;;;;0.20;99.90;;;;;;6317330;22;19918;-90
2022/12/09 17:08:25;;;;;;;;;;;0.20;99.90;;;;;;6319069;22;20251;-92
2022/12/09 17:10:51;;;;;;;;;;;0.10;99.90;;;;;;6319139;22;19910;-90
2022/12/09 17:13:16;;;;;;;;;;;0.20;99.90;;;;;;6293265;22;20054;-91
2022/12/09 17:16:00;;;;;;;;;;;0.10;99.90;;;;;;6319085;22;19915;-90
2022/12/09 17:18:29;;;;;;;;;;;0.10;99.90;;;;;;6319317;22;19956;-90
2022/12/09 17:21:02;;;;;;;;;;;0.00;99.90;;;;;;6319383;22;19914;-91
2022/12/09 17:23:28;;;;;;;;;;;0.10;99.90;;;;;;6319843;22;19914;-92
2022/12/09 17:25:55;;;;;;;;;;;0.10;99.90;;;;;;6319147;22;19914;-93
2022/12/09 17:28:21;;;;;;;;;;;0.00;99.90;;;;;;6318947;22;19914;-95
2022/12/09 17:30:46;;;;;;;;;;;0.00;99.90;;;;;;6344870;22;19968;-91
2022/12/09 17:35:48;;;;;;;;;;;0.00;99.90;;;;;;6404434;22;19914;-90
2022/12/09 17:38:41;;;;;;;;;;;-0.10;99.90;;;;;;6376323;22;19937;-91
2022/12/09 17:41:09;;;;;;;;;;;-0.10;99.90;;;;;;6402950;22;19914;-89
2022/12/09 17:43:34;;;;;;;;;;;-0.10;99.90;;;;;;6376615;22;19913;-90
2022/12/09 17:46:00;;;;;;;;;;;-0.10;99.90;;;;;;6376787;22;19920;-92
2022/12/09 17:48:27;;;;;;;;;;;-0.10;99.90;;;;;;6376915;22;19949;-89
2022/12/09 17:50:52;;;;;;;;;;;-0.10;99.90;;;;;;6376370;22;20255;-90
2022/12/09 17:53:18;;;;;;;;;;;-0.10;99.90;;;;;;6376245;22;19914;-90
2022/12/09 18:06:07;;;;;;;;;;;-0.30;99.90;;;;;;6370354;22;19918;-88
2022/12/09 18:08:33;;;;;;;;;;;-0.40;99.90;;;;;;6293308;22;19915;-87
2022/12/09 18:11:03;;;;;;;;;;;-0.40;99.90;;;;;;6318676;22;20387;-88
2022/12/09 18:13:29;;;;;;;;;;;-0.40;99.90;;;;;;6318028;22;19914;-89
2022/12/09 18:15:54;;;;;;;;;;;-0.40;99.90;;;;;;6318840;22;19963;-88
2022/12/09 18:18:20;;;;;;;;;;;-0.40;99.90;;;;;;6344361;22;19914;-87
2022/12/09 18:23:21;;;;;;;;;;;-0.40;99.90;;;;;;6354357;22;19914;-94
2022/12/09 18:25:47;;;;;;;;;;;-0.30;99.90;;;;;;6349901;22;20338;-89
2022/12/09 18:33:24;;;;;;;;;;;-0.30;99.90;;;;;;6374027;22;19914;-92
2022/12/09 18:35:50;;;;;;;;;;;-0.30;99.90;;;;;;6319959;22;19921;-87
2022/12/09 18:38:16;;;;;;;;;;;-0.30;99.90;;;;;;6319119;22;19957;-87
2022/12/09 18:40:59;;;;;;;;;;;-0.30;99.90;;;;;;6318330;22;19914;-85
2022/12/09 18:43:32;;;;;;;;;;;-0.30;99.90;;;;;;6317136;22;19914;-88
2022/12/09 18:46:01;;;;;;;;;;;-0.30;99.90;;;;;;6317048;22;19914;-87
2022/12/09 18:48:27;;;;;;;;;;;-0.30;99.90;;;;;;6317336;22;19914;-88
2022/12/09 18:50:53;;;;;;;;;;;-0.30;99.90;;;;;;6320605;22;20246;-87
2022/12/09 18:53:18;;;;;;;;;;;-0.30;99.90;;;;;;6318102;22;20040;-89
2022/12/09 18:55:44;;;;;;;;;;;-0.30;99.90;;;;;;6320335;22;19922;-91
2022/12/09 18:58:09;;;;;;;;;;;-0.30;99.90;;;;;;6318356;22;19917;-87
2022/12/09 19:00:35;;;;;;;;;;;-0.30;99.90;;;;;;6293634;22;19921;-92
2022/12/09 19:03:16;;;;;;;;;;;-0.30;99.90;;;;;;6352210;22;19910;-91
2022/12/09 19:05:41;;;;;;;;;;;-0.30;99.90;;;;;;6346658;22;19921;-92
2022/12/09 19:08:13;;;;;;;;;;;-0.30;99.90;;;;;;6319221;22;19942;-92
2022/12/09 19:10:42;;;;;;;;;;;-0.30;99.90;;;;;;6322322;22;19937;-91
2022/12/09 19:13:08;;;;;;;;;;;-0.30;99.90;;;;;;6344390;22;20332;-89
2022/12/09 19:15:53;;;;;;;;;;;-0.30;99.90;;;;;;6344249;22;20370;-89
2022/12/09 19:18:18;;;;;;;;;;;-0.30;99.90;;;;;;6317059;22;19910;-92
2022/12/09 19:20:44;;;;;;;;;;;-0.30;99.90;;;;;;6343973;22;19924;-89
2022/12/09 19:23:09;;;;;;;;;;;-0.30;99.90;;;;;;6317776;22;19917;-90
2022/12/09 19:29:17;;;;;;;;;;;-0.30;99.90;;;;;;6371397;22;19917;-88
2022/12/09 19:31:47;;;;;;;;;;;-0.30;99.90;;;;;;6344688;22;19963;-88
2022/12/09 19:34:26;;;;;;;;;;;-0.30;99.90;;;;;;6353768;22;19914;-88
2022/12/09 19:36:54;;;;;;;;;;;-0.30;99.90;;;;;;6376426;22;19914;-89
2022/12/09 19:39:22;;;;;;;;;;;-0.30;99.90;;;;;;6322058;22;19910;-89
2022/12/09 19:41:53;;;;;;;;;;;-0.40;99.90;;;;;;6350584;22;19914;-89
2022/12/09 19:44:19;;;;;;;;;;;-0.40;99.90;;;;;;6326517;22;19910;-90
2022/12/09 19:46:48;;;;;;;;;;;-0.50;99.90;;;;;;6324881;22;19918;-89
2022/12/09 19:49:16;;;;;;;;;;;-0.40;99.90;;;;;;6352002;22;19915;-91
2022/12/09 19:51:42;;;;;;;;;;;-0.40;99.90;;;;;;6322470;22;19945;-88
2022/12/09 19:54:09;;;;;;;;;;;-0.40;99.90;;;;;;6323266;22;19993;-88
2022/12/09 19:56:35;;;;;;;;;;;-0.30;99.90;;;;;;6321190;22;19940;-93
2022/12/09 19:59:16;;;;;;;;;;;-0.40;99.90;;;;;;6319397;22;19920;-91
2022/12/09 20:01:43;;;;;;;;;;;-0.40;99.90;;;;;;6319351;22;19920;-88
2022/12/09 20:04:13;;;;;;;;;;;-0.40;99.90;;;;;;6318166;22;19914;-88
2022/12/09 20:06:38;;;;;;;;;;;-0.40;99.90;;;;;;6319940;22;19917;-89
2022/12/09 20:09:05;;;;;;;;;;;-0.40;99.90;;;;;;6318509;22;20324;-92
2022/12/09 20:11:33;;;;;;;;;;;-0.50;99.90;;;;;;6319003;22;19994;-90
2022/12/09 20:13:59;;;;;;;;;;;-0.50;99.90;;;;;;6344931;22;20392;-88
2022/12/09 20:16:25;;;;;;;;;;;-0.60;99.90;;;;;;6343868;22;20351;-87
2022/12/09 20:18:52;;;;;;;;;;;-0.50;99.90;;;;;;6317147;22;19922;-95
2022/12/09 20:21:18;;;;;;;;;;;-0.60;99.90;;;;;;6319295;22;19921;-86
2022/12/09 20:23:44;;;;;;;;;;;-0.60;99.90;;;;;;6372572;22;19917;-88
2022/12/09 20:26:11;;;;;;;;;;;-0.50;99.90;;;;;;6318996;22;19959;-89
2022/12/09 20:28:38;;;;;;;;;;;-0.50;99.90;;;;;;6345157;22;20287;-88
2022/12/09 20:31:09;;;;;;;;;;;-0.50;99.90;;;;;;6373466;22;19914;-90
2022/12/09 20:33:35;;;;;;;;;;;-0.60;99.90;;;;;;6372659;22;19918;-89
2022/12/09 20:36:14;;;;;;;;;;;-0.60;99.90;;;;;;6344828;22;19949;-87
2022/12/09 20:38:40;;;;;;;;;;;-0.60;99.90;;;;;;6345084;22;19963;-87
2022/12/09 20:41:08;;;;;;;;;;;-0.60;99.90;;;;;;6372894;22;19914;-90
2022/12/09 20:43:38;;;;;;;;;;;-0.60;99.90;;;;;;6352083;22;19931;-95
2022/12/09 20:46:08;;;;;;;;;;;-0.60;99.90;;;;;;6322314;22;20004;-94
2022/12/09 20:48:34;;;;;;;;;;;-0.60;99.90;;;;;;6345528;22;20247;-90
2022/12/09 20:51:02;;;;;;;;;;;-0.60;99.90;;;;;;6322670;22;20337;-96
2022/12/09 20:53:27;;;;;;;;;;;-0.60;99.90;;;;;;6320219;22;20319;-88
2022/12/09 20:55:54;;;;;;;;;;;-0.70;99.90;;;;;;6319035;22;19989;-92
2022/12/09 20:58:19;;;;;;;;;;;-0.60;99.90;;;;;;6372544;22;19918;-92
2022/12/09 21:00:45;;;;;;;;;;;-0.70;99.90;;;;;;6319193;22;20332;-87
2022/12/09 21:03:11;;;;;;;;;;;-0.70;99.90;;;;;;6345408;22;19914;-94
2022/12/09 21:05:36;;;;;;;;;;;-0.70;99.90;;;;;;6373273;22;19918;-87
2022/12/09 21:08:02;;;;;;;;;;;-0.70;99.90;;;;;;6345548;22;19918;-90
2022/12/09 21:10:27;;;;;;;;;;;-0.70;99.90;;;;;;6346864;22;19914;-96
2022/12/09 21:12:53;;;;;;;;;;;-0.70;99.90;;;;;;6345325;22;19922;-91
2022/12/09 21:15:19;;;;;;;;;;;-0.80;99.90;;;;;;6318720;22;19972;-88
2022/12/09 21:17:47;;;;;;;;;;;-0.70;99.90;;;;;;6318855;22;19941;-89
2022/12/09 21:20:13;;;;;;;;;;;-0.70;99.90;;;;;;6344432;22;19993;-87
2022/12/09 21:22:39;;;;;;;;;;;-0.80;99.90;;;;;;6318333;22;19914;-89
2022/12/09 21:25:04;;;;;;;;;;;-0.70;99.90;;;;;;6345013;22;19918;-92
2022/12/09 21:27:30;;;;;;;;;;;-0.70;99.90;;;;;;6319010;22;19914;-95
2022/12/09 21:29:56;;;;;;;;;;;-0.70;99.90;;;;;;6345165;22;19914;-93
2022/12/09 21:32:21;;;;;;;;;;;-0.70;99.90;;;;;;6344664;22;19914;-89
2022/12/09 21:34:47;;;;;;;;;;;-0.70;99.90;;;;;;6372405;22;19922;-90
2022/12/09 21:37:12;;;;;;;;;;;-0.70;99.90;;;;;;6293422;22;19953;-93
2022/12/09 21:39:38;;;;;;;;;;;-0.70;99.90;;;;;;6344816;22;19964;-93
2022/12/09 21:42:04;;;;;;;;;;;-0.70;99.90;;;;;;6319155;22;19918;-93
2022/12/09 21:44:32;;;;;;;;;;;-0.70;99.90;;;;;;6319624;22;19989;-95
2022/12/09 21:46:58;;;;;;;;;;;-0.70;99.90;;;;;;6318872;22;19921;-94
2022/12/09 21:49:24;;;;;;;;;;;-0.70;99.90;;;;;;6319057;22;19914;-94
2022/12/09 21:51:49;;;;;;;;;;;-0.70;99.90;;;;;;6318905;22;19914;-95
2022/12/09 21:54:15;;;;;;;;;;;-0.70;99.90;;;;;;6318271;22;19915;-93
2022/12/09 21:56:41;;;;;;;;;;;-0.70;99.90;;;;;;6372380;22;19945;-89
2022/12/09 21:59:07;;;;;;;;;;;-0.70;99.90;;;;;;6344423;22;19966;-85
2022/12/09 22:01:33;;;;;;;;;;;-0.80;99.90;;;;;;6344557;22;19989;-86
2022/12/09 22:04:00;;;;;;;;;;;-0.70;99.90;;;;;;6344528;22;19942;-91
2022/12/09 22:06:26;;;;;;;;;;;-0.70;99.90;;;;;;6344077;22;19993;-91
2022/12/09 22:08:52;;;;;;;;;;;-0.70;99.90;;;;;;6318518;22;19953;-96
2022/12/09 22:11:22;;;;;;;;;;;-0.80;99.90;;;;;;6318303;22;19914;-87
2022/12/09 22:13:47;;;;;;;;;;;-0.80;99.90;;;;;;6320279;22;19914;-86
2022/12/09 22:16:18;;;;;;;;;;;-0.80;99.90;;;;;;6318123;22;20289;-87
2022/12/09 22:18:44;;;;;;;;;;;-0.90;99.90;;;;;;6372088;22;20227;-90
2022/12/09 22:21:11;;;;;;;;;;;-0.90;99.90;;;;;;6343924;22;19914;-91
2022/12/09 22:23:36;;;;;;;;;;;-0.90;99.90;;;;;;6371834;22;19910;-93
2022/12/09 22:26:04;;;;;;;;;;;-0.90;99.90;;;;;;6343968;22;19979;-86
2022/12/09 22:28:29;;;;;;;;;;;-1.00;99.90;;;;;;6344073;22;19941;-94
2022/12/09 22:30:55;;;;;;;;;;;-0.90;99.90;;;;;;6343796;22;20254;-86
2022/12/09 22:33:20;;;;;;;;;;;-1.00;99.90;;;;;;6343226;22;20217;-86
2022/12/09 22:35:46;;;;;;;;;;;-1.00;99.90;;;;;;6371433;22;19914;-86
2022/12/09 22:38:11;;;;;;;;;;;-1.00;99.90;;;;;;6343722;22;19914;-87
2022/12/09 22:40:37;;;;;;;;;;;-1.00;99.90;;;;;;6343629;22;19914;-89
2022/12/09 22:43:03;;;;;;;;;;;-1.00;99.90;;;;;;6343691;22;19993;-86
2022/12/09 22:45:28;;;;;;;;;;;-1.00;99.90;;;;;;6343449;22;19986;-86
2022/12/09 22:47:54;;;;;;;;;;;-0.90;99.90;;;;;;6371425;22;19978;-88
2022/12/09 22:50:20;;;;;;;;;;;-1.00;99.90;;;;;;6343731;22;19914;-87
2022/12/09 22:52:46;;;;;;;;;;;-1.00;99.90;;;;;;6343335;22;19910;-88
2022/12/09 22:55:12;;;;;;;;;;;-1.00;99.90;;;;;;6371687;22;19922;-86
2022/12/09 22:57:38;;;;;;;;;;;-1.00;99.90;;;;;;6371507;22;19914;-87
2022/12/09 23:00:10;;;;;;;;;;;-1.10;99.90;;;;;;6343570;22;19914;-87